Time;durP1;ratioP1;P1;durP2;ratioP2;P2;SDS_P1;SDS_P2;PMS_P1;PMS_P2;Temp;Humidity;BMP_temperature;BMP_pressure;BME280_temperature;BME280_humidity;BME280_pressure;Samples;Min_cycle;Max_cycle;Signal;HPM_P1;HPM_P2
2021/04/26 00:00:30;;;;;;;8.35;2.80;;;8.20;45.90;;;;;;5060845;28;20032;-64
2021/04/26 00:02:59;;;;;;;4.07;2.70;;;8.20;46.20;;;;;;5059206;28;20668;-64
2021/04/26 00:05:28;;;;;;;4.53;2.65;;;8.20;46.10;;;;;;5063379;28;20036;-63
2021/04/26 00:08:05;;;;;;;5.03;2.70;;;8.20;46.30;;;;;;5064956;28;20174;-64
2021/04/26 00:10:33;;;;;;;4.15;2.45;;;8.20;46.50;;;;;;5052645;28;20032;-64
2021/04/26 00:12:59;;;;;;;3.53;2.78;;;8.10;46.30;;;;;;5059714;28;20028;-64
2021/04/26 00:15:29;;;;;;;4.50;2.25;;;8.10;46.40;;;;;;5062847;28;20089;-64
2021/04/26 00:18:00;;;;;;;4.47;2.72;;;8.10;46.80;;;;;;5066297;28;20390;-63
2021/04/26 00:20:28;;;;;;;6.03;2.60;;;8.00;46.80;;;;;;5060048;28;20455;-64
2021/04/26 00:23:01;;;;;;;5.82;2.70;;;8.00;46.70;;;;;;5061304;28;20520;-65
2021/04/26 00:25:32;;;;;;;4.15;2.60;;;8.00;46.90;;;;;;5061090;28;20501;-64
2021/04/26 00:28:03;;;;;;;5.05;2.80;;;8.00;46.90;;;;;;5061304;28;20032;-64
2021/04/26 00:30:33;;;;;;;4.28;2.55;;;8.00;47.20;;;;;;5060128;28;20040;-65
2021/04/26 00:33:06;;;;;;;7.28;2.80;;;7.90;47.00;;;;;;5061420;28;20037;-64
2021/04/26 00:35:36;;;;;;;6.43;2.70;;;7.90;47.30;;;;;;5061119;28;20032;-66
2021/04/26 00:38:02;;;;;;;5.80;2.72;;;7.90;47.10;;;;;;5062119;28;20032;-65
2021/04/26 00:40:32;;;;;;;4.97;2.40;;;7.80;47.10;;;;;;5060867;28;20037;-64
2021/04/26 00:43:02;;;;;;;3.40;2.10;;;7.80;47.40;;;;;;5065340;28;20115;-65
2021/04/26 00:45:32;;;;;;;4.43;2.80;;;7.80;47.50;;;;;;5062544;28;20183;-65
2021/04/26 00:48:03;;;;;;;6.13;2.15;;;7.70;47.60;;;;;;5063678;28;20202;-65
2021/04/26 00:50:32;;;;;;;4.75;2.63;;;7.70;47.70;;;;;;5060548;28;20036;-63
2021/04/26 00:53:05;;;;;;;5.75;2.50;;;7.70;47.80;;;;;;5060419;28;20103;-64
2021/04/26 00:55:38;;;;;;;5.47;2.40;;;7.70;47.90;;;;;;5064673;28;20029;-65
2021/04/26 00:58:04;;;;;;;7.40;2.30;;;7.70;48.90;;;;;;5064626;28;20502;-65
2021/04/26 01:00:31;;;;;;;5.53;2.53;;;7.60;47.80;;;;;;5058693;28;20039;-64
2021/04/26 01:02:59;;;;;;;3.88;2.50;;;7.60;47.90;;;;;;5059489;28;20028;-64
2021/04/26 01:05:29;;;;;;;3.58;2.33;;;7.60;48.20;;;;;;5062561;28;20509;-64
2021/04/26 01:07:58;;;;;;;4.13;2.47;;;7.60;48.30;;;;;;5061755;28;20036;-64
2021/04/26 01:10:30;;;;;;;3.78;2.13;;;7.60;48.20;;;;;;5056188;28;20894;-64
2021/04/26 01:13:28;;;;;;;4.28;2.47;;;7.50;48.30;;;;;;5063912;28;20025;-61
2021/04/26 01:16:09;;;;;;;3.40;2.20;;;7.60;49.20;;;;;;5065331;28;20032;-64
2021/04/26 01:19:06;;;;;;;6.38;2.78;;;7.60;48.90;;;;;;5059881;28;20028;-65
2021/04/26 01:22:07;;;;;;;5.25;2.47;;;7.50;49.60;;;;;;5062847;28;20029;-64
2021/04/26 01:25:08;;;;;;;6.03;2.58;;;7.50;49.00;;;;;;5065386;28;20029;-64
2021/04/26 01:28:06;;;;;;;4.13;2.53;;;7.50;48.40;;;;;;5020748;28;20028;-64
2021/04/26 01:30:54;;;;;;;4.57;2.67;;;7.40;49.10;;;;;;5063019;28;20124;-64
2021/04/26 01:33:24;;;;;;;4.97;2.17;;;7.40;49.20;;;;;;5063031;28;20025;-65
2021/04/26 01:35:51;;;;;;;5.47;2.63;;;7.30;48.70;;;;;;5061752;28;20032;-65
2021/04/26 01:38:26;;;;;;;5.70;2.78;;;7.30;48.70;;;;;;5059478;28;20039;-64
2021/04/26 01:41:00;;;;;;;4.30;2.72;;;7.30;49.00;;;;;;5064700;28;20024;-63
2021/04/26 01:43:31;;;;;;;4.18;2.72;;;7.30;49.00;;;;;;5064355;28;20121;-64
2021/04/26 01:46:08;;;;;;;5.13;2.70;;;7.30;49.20;;;;;;5062054;28;20036;-65
2021/04/26 01:48:41;;;;;;;3.85;2.72;;;7.20;49.40;;;;;;5054041;28;20044;-64
2021/04/26 01:51:14;;;;;;;5.90;3.00;;;7.20;49.30;;;;;;5058374;28;20037;-64
2021/04/26 01:53:42;;;;;;;4.82;3.00;;;7.10;49.40;;;;;;5065127;28;20495;-64
2021/04/26 01:56:09;;;;;;;5.65;2.95;;;7.10;49.40;;;;;;5063619;28;20055;-65
2021/04/26 01:58:40;;;;;;;4.47;3.00;;;7.10;49.50;;;;;;5058884;28;20035;-63
2021/04/26 02:01:14;;;;;;;5.05;3.10;;;7.10;49.80;;;;;;5057076;28;20135;-64
2021/04/26 02:03:49;;;;;;;9.00;3.17;;;7.10;49.80;;;;;;5063108;28;20032;-64
2021/04/26 02:06:20;;;;;;;5.55;3.17;;;7.00;49.90;;;;;;5058882;28;20041;-65
2021/04/26 02:08:51;;;;;;;5.65;3.38;;;7.00;49.90;;;;;;5064970;28;20064;-63
2021/04/26 02:11:23;;;;;;;5.28;3.50;;;7.00;50.00;;;;;;5053806;28;20041;-64
2021/04/26 02:13:49;;;;;;;4.93;3.60;;;6.90;50.20;;;;;;5062881;28;20045;-64
2021/04/26 02:16:22;;;;;;;6.68;3.50;;;6.90;50.20;;;;;;5056016;28;20036;-64
2021/04/26 02:18:47;;;;;;;5.32;3.35;;;6.90;50.70;;;;;;5058811;28;20445;-64
2021/04/26 02:21:20;;;;;;;7.03;3.50;;;6.80;50.70;;;;;;5058839;28;20691;-65
2021/04/26 02:23:48;;;;;;;8.50;3.80;;;6.80;50.90;;;;;;5059720;28;20029;-63
2021/04/26 02:26:18;;;;;;;4.97;3.40;;;6.80;50.70;;;;;;5062274;28;20044;-65
2021/04/26 02:28:46;;;;;;;6.68;3.95;;;6.70;51.00;;;;;;5059064;28;20044;-64
2021/04/26 02:31:23;;;;;;;7.38;3.92;;;6.70;51.10;;;;;;5059852;28;20048;-65
2021/04/26 02:34:09;;;;;;;6.20;3.63;;;6.70;51.60;;;;;;5061744;28;20033;-64
2021/04/26 02:36:40;;;;;;;4.03;3.42;;;6.60;51.90;;;;;;5062208;28;20501;-64
2021/04/26 02:39:10;;;;;;;5.68;4.05;;;6.60;51.20;;;;;;5059562;28;20658;-64
2021/04/26 02:41:41;;;;;;;9.40;3.90;;;6.60;51.40;;;;;;5059567;28;20053;-64
2021/04/26 02:44:20;;;;;;;6.57;3.70;;;6.60;51.70;;;;;;5063367;28;20036;-64
2021/04/26 02:46:53;;;;;;;7.45;3.85;;;6.60;51.90;;;;;;5062989;28;20120;-64
2021/04/26 02:49:22;;;;;;;8.30;4.07;;;6.60;51.80;;;;;;5061317;28;20493;-64
2021/04/26 02:51:53;;;;;;;12.73;4.28;;;6.60;51.90;;;;;;5063699;28;20088;-65
2021/04/26 02:54:20;;;;;;;8.60;3.83;;;6.50;51.80;;;;;;5065563;28;20037;-64
2021/04/26 02:56:50;;;;;;;7.90;4.47;;;6.50;51.80;;;;;;5062716;28;20045;-65
2021/04/26 02:59:20;;;;;;;8.73;3.95;;;6.50;51.80;;;;;;5064337;28;20101;-64
2021/04/26 03:01:51;;;;;;;9.75;4.30;;;6.50;51.90;;;;;;5062060;28;20039;-65
2021/04/26 03:04:20;;;;;;;6.32;3.97;;;6.50;52.00;;;;;;5064822;28;20062;-64
2021/04/26 03:06:52;;;;;;;8.90;4.78;;;6.50;52.20;;;;;;5064587;28;20033;-63
2021/04/26 03:09:20;;;;;;;6.65;4.22;;;6.50;52.30;;;;;;5064193;28;20460;-63
2021/04/26 03:11:53;;;;;;;7.60;4.45;;;6.40;52.10;;;;;;5062600;28;20033;-63
2021/04/26 03:14:25;;;;;;;6.70;4.22;;;6.40;52.30;;;;;;5068257;28;20037;-64
2021/04/26 03:16:57;;;;;;;10.27;4.55;;;6.30;52.20;;;;;;5068074;28;20075;-63
2021/04/26 03:19:26;;;;;;;7.70;4.13;;;6.30;52.10;;;;;;5063059;28;20040;-63
2021/04/26 03:21:55;;;;;;;6.07;4.07;;;6.30;52.50;;;;;;5063742;28;20039;-64
2021/04/26 03:24:26;;;;;;;11.35;4.10;;;6.20;52.50;;;;;;5065450;28;20041;-64
2021/04/26 03:26:57;;;;;;;8.40;4.55;;;6.20;52.60;;;;;;5064179;28;20448;-64
2021/04/26 03:29:26;;;;;;;6.85;4.20;;;6.20;52.70;;;;;;5065117;28;20037;-59
2021/04/26 03:31:55;;;;;;;6.32;4.13;;;6.20;52.80;;;;;;5062349;28;20550;-63
2021/04/26 03:34:24;;;;;;;7.35;4.20;;;6.20;52.90;;;;;;5062520;28;20386;-63
2021/04/26 03:36:51;;;;;;;7.20;3.90;;;6.20;53.10;;;;;;5058564;28;20043;-64
2021/04/26 03:39:23;;;;;;;8.02;4.50;;;6.10;52.90;;;;;;5058033;28;20036;-64
2021/04/26 03:41:53;;;;;;;7.10;4.25;;;6.10;53.20;;;;;;5060759;28;20056;-64
2021/04/26 03:44:21;;;;;;;7.63;4.70;;;6.00;53.00;;;;;;5058124;28;20082;-64
2021/04/26 03:47:02;;;;;;;5.68;4.10;;;6.00;53.00;;;;;;5054566;28;20124;-64
2021/04/26 03:49:36;;;;;;;7.65;4.55;;;6.00;53.60;;;;;;5062130;28;20107;-64
2021/04/26 03:52:04;;;;;;;8.18;4.40;;;6.00;53.00;;;;;;5056864;28;20147;-63
2021/04/26 03:54:35;;;;;;;8.57;5.10;;;6.00;53.10;;;;;;5065599;28;20439;-63
2021/04/26 03:57:01;;;;;;;7.35;4.55;;;5.90;53.20;;;;;;5081670;28;20028;-64
2021/04/26 03:59:27;;;;;;;12.43;5.32;;;6.00;53.50;;;;;;5068114;28;20035;-64
2021/04/26 04:01:57;;;;;;;8.32;4.63;;;5.90;53.30;;;;;;5053224;28;20036;-62
2021/04/26 04:04:30;;;;;;;9.65;4.93;;;5.90;53.50;;;;;;5052697;28;20401;-63
2021/04/26 04:07:00;;;;;;;7.78;4.57;;;5.90;53.50;;;;;;5061012;28;20036;-64
2021/04/26 04:09:28;;;;;;;7.15;4.45;;;5.90;53.40;;;;;;5060865;28;20040;-64
2021/04/26 04:11:56;;;;;;;6.10;4.15;;;5.90;53.40;;;;;;5059059;28;20044;-65
2021/04/26 04:14:21;;;;;;;7.32;4.75;;;5.90;53.40;;;;;;5066259;28;20033;-64
2021/04/26 04:16:47;;;;;;;6.38;4.15;;;5.90;53.50;;;;;;5060385;28;20041;-65
2021/04/26 04:19:15;;;;;;;8.27;4.55;;;5.90;53.50;;;;;;5061891;28;20456;-64
2021/04/26 04:21:48;;;;;;;8.02;4.40;;;5.80;53.40;;;;;;5062601;28;20119;-65
2021/04/26 04:24:16;;;;;;;11.30;4.32;;;5.80;53.80;;;;;;5063189;28;20036;-64
2021/04/26 04:26:48;;;;;;;8.57;4.50;;;5.80;53.50;;;;;;5051312;28;20045;-62
2021/04/26 04:29:16;;;;;;;10.18;4.40;;;5.80;53.90;;;;;;5048946;28;20037;-64
2021/04/26 04:31:44;;;;;;;10.80;4.55;;;5.70;53.70;;;;;;5055364;28;20040;-64
2021/04/26 04:34:10;;;;;;;9.80;5.68;;;5.70;54.00;;;;;;5058552;28;20044;-65
2021/04/26 04:36:40;;;;;;;8.15;4.57;;;5.70;53.80;;;;;;5061841;28;20488;-64
2021/04/26 04:39:06;;;;;;;7.03;4.60;;;5.70;54.10;;;;;;5066252;28;20041;-63
2021/04/26 04:41:36;;;;;;;6.45;4.53;;;5.70;53.90;;;;;;5066494;28;20021;-64
2021/04/26 04:44:07;;;;;;;12.18;4.30;;;5.70;54.10;;;;;;5066266;28;20028;-64
2021/04/26 04:46:35;;;;;;;9.00;4.07;;;5.70;54.10;;;;;;5065290;28;20551;-63
2021/04/26 04:49:03;;;;;;;6.80;4.95;;;5.70;54.00;;;;;;5057877;28;20055;-65
2021/04/26 04:51:33;;;;;;;11.30;4.60;;;5.70;54.10;;;;;;5065473;28;20412;-63
2021/04/26 04:54:04;;;;;;;9.07;4.60;;;5.70;54.20;;;;;;5066588;28;20032;-64
2021/04/26 04:56:30;;;;;;;8.23;4.57;;;5.70;54.20;;;;;;5063521;28;20111;-63
2021/04/26 04:59:00;;;;;;;10.50;4.75;;;5.70;54.30;;;;;;5066861;28;20512;-61
2021/04/26 05:01:33;;;;;;;10.30;4.53;;;5.70;54.30;;;;;;5063791;28;20021;-64
2021/04/26 05:04:04;;;;;;;10.02;4.40;;;5.80;54.50;;;;;;5065153;28;20056;-64
2021/04/26 05:06:30;;;;;;;8.20;4.55;;;5.80;54.60;;;;;;5064618;28;20406;-63
2021/04/26 05:08:57;;;;;;;7.07;4.72;;;5.80;54.60;;;;;;5065778;28;20040;-63
2021/04/26 05:11:28;;;;;;;9.55;4.57;;;5.80;54.50;;;;;;5059122;28;20032;-64
2021/04/26 05:13:56;;;;;;;9.02;5.18;;;5.80;54.70;;;;;;5066313;28;20544;-63
2021/04/26 05:16:27;;;;;;;12.55;5.00;;;5.80;55.30;;;;;;5065400;28;20033;-63
2021/04/26 05:18:56;;;;;;;9.38;5.13;;;5.80;55.10;;;;;;5058491;28;20070;-63
2021/04/26 05:21:27;;;;;;;8.93;4.95;;;5.80;55.10;;;;;;5065249;28;20035;-64
2021/04/26 05:23:58;;;;;;;8.35;5.25;;;5.80;55.50;;;;;;5065538;28;20427;-63
2021/04/26 05:26:29;;;;;;;13.05;5.25;;;5.80;55.40;;;;;;5065566;28;20032;-63
2021/04/26 05:28:57;;;;;;;8.20;4.72;;;5.80;55.50;;;;;;5064741;28;20025;-63
2021/04/26 05:31:27;;;;;;;8.52;4.53;;;5.80;55.10;;;;;;5066182;28;20033;-62
2021/04/26 05:33:53;;;;;;;10.40;4.90;;;5.80;55.50;;;;;;5065701;28;20154;-61
2021/04/26 05:36:21;;;;;;;9.77;5.55;;;5.90;55.70;;;;;;5064841;28;20131;-63
2021/04/26 05:38:51;;;;;;;11.52;5.15;;;5.90;55.60;;;;;;5066555;28;20029;-63
2021/04/26 05:41:19;;;;;;;7.70;5.03;;;5.90;55.40;;;;;;5065864;28;20036;-62
2021/04/26 05:43:45;;;;;;;8.77;4.70;;;5.90;55.90;;;;;;5063544;28;20029;-63
2021/04/26 05:46:14;;;;;;;8.07;4.93;;;5.90;55.50;;;;;;5062868;28;20043;-64
2021/04/26 05:48:42;;;;;;;8.20;4.50;;;6.00;55.60;;;;;;5065536;28;20036;-63
2021/04/26 05:51:12;;;;;;;6.25;4.47;;;6.10;55.50;;;;;;5063992;28;20239;-63
2021/04/26 05:53:40;;;;;;;10.45;5.07;;;6.10;55.30;;;;;;5065647;28;20048;-62
2021/04/26 05:56:08;;;;;;;8.48;4.90;;;6.20;55.30;;;;;;5065241;28;20037;-63
2021/04/26 05:58:36;;;;;;;11.00;4.85;;;6.20;55.10;;;;;;5066004;28;20029;-63
2021/04/26 06:01:09;;;;;;;9.93;5.25;;;6.20;54.90;;;;;;5066350;28;20021;-62
2021/04/26 06:03:35;;;;;;;7.53;4.95;;;6.20;54.90;;;;;;5066488;28;20032;-63
2021/04/26 06:06:05;;;;;;;11.02;5.07;;;6.30;54.80;;;;;;5063345;28;20036;-63
2021/04/26 06:08:35;;;;;;;6.40;4.90;;;6.30;54.90;;;;;;5064087;28;20712;-63
2021/04/26 06:11:04;;;;;;;8.45;4.90;;;6.30;54.80;;;;;;5060600;28;20107;-63
2021/04/26 06:13:30;;;;;;;9.07;4.95;;;6.40;55.30;;;;;;5065259;28;20028;-63
2021/04/26 06:16:00;;;;;;;7.85;4.75;;;6.40;54.60;;;;;;5064102;28;20535;-63
2021/04/26 06:18:26;;;;;;;8.18;5.05;;;6.50;55.10;;;;;;5066729;28;20029;-63
2021/04/26 06:20:59;;;;;;;12.02;5.38;;;6.50;54.70;;;;;;5068757;28;20032;-63
2021/04/26 06:23:29;;;;;;;10.10;5.13;;;6.50;55.10;;;;;;5068389;28;20021;-63
2021/04/26 06:25:59;;;;;;;7.13;4.63;;;6.60;54.90;;;;;;5069219;28;20657;-63
2021/04/26 06:28:25;;;;;;;8.73;4.80;;;6.60;54.90;;;;;;5067585;28;20028;-64
2021/04/26 06:30:53;;;;;;;13.70;5.28;;;6.60;54.70;;;;;;5068163;28;20050;-63
2021/04/26 06:33:19;;;;;;;8.45;5.13;;;6.70;54.90;;;;;;5066778;28;20033;-63
2021/04/26 06:35:58;;;;;;;5.95;5.03;;;6.70;54.70;;;;;;5067024;28;20140;-63
2021/04/26 06:38:31;;;;;;;8.40;5.07;;;6.70;55.00;;;;;;5067901;28;20028;-60
2021/04/26 06:40:59;;;;;;;8.75;4.85;;;6.80;55.00;;;;;;5068378;28;20025;-62
2021/04/26 06:43:29;;;;;;;9.48;5.03;;;6.90;54.70;;;;;;5068242;28;20021;-63
2021/04/26 06:45:57;;;;;;;9.50;5.15;;;6.90;54.70;;;;;;5067384;28;20123;-62
2021/04/26 06:48:28;;;;;;;6.68;4.88;;;7.00;54.50;;;;;;5068495;28;20116;-63
2021/04/26 06:50:58;;;;;;;5.60;4.55;;;7.00;54.40;;;;;;5068992;28;20029;-62
2021/04/26 06:53:26;;;;;;;8.82;5.22;;;7.10;54.50;;;;;;5068517;28;20028;-61
2021/04/26 06:55:57;;;;;;;7.60;5.13;;;7.10;54.30;;;;;;5068954;28;20021;-63
2021/04/26 06:58:25;;;;;;;8.73;4.88;;;7.20;54.40;;;;;;5069314;28;20025;-61
2021/04/26 07:00:53;;;;;;;9.43;5.30;;;7.20;54.20;;;;;;5069692;28;20406;-62
2021/04/26 07:03:21;;;;;;;8.55;5.05;;;7.30;54.80;;;;;;5057396;28;20053;-63
2021/04/26 07:05:49;;;;;;;10.90;5.75;;;7.40;54.40;;;;;;5066896;28;20485;-62
2021/04/26 07:08:16;;;;;;;10.15;5.22;;;7.50;54.30;;;;;;5055184;28;20124;-62
2021/04/26 07:10:44;;;;;;;9.00;5.22;;;7.50;54.20;;;;;;5061807;28;20584;-61
2021/04/26 07:13:15;;;;;;;10.50;5.38;;;7.60;54.40;;;;;;5064302;28;20132;-60
2021/04/26 07:15:43;;;;;;;8.93;5.13;;;7.70;54.30;;;;;;5067046;28;20024;-63
2021/04/26 07:18:11;;;;;;;7.13;5.13;;;7.70;54.10;;;;;;5065840;28;20124;-63
2021/04/26 07:20:39;;;;;;;9.70;5.78;;;7.80;54.10;;;;;;5066590;28;20520;-63
2021/04/26 07:23:09;;;;;;;8.80;4.82;;;7.90;54.10;;;;;;5080318;28;20532;-63
2021/04/26 07:25:35;;;;;;;10.45;5.78;;;7.90;54.00;;;;;;5067469;28;20508;-63
2021/04/26 07:28:03;;;;;;;8.23;5.15;;;8.00;54.10;;;;;;5063139;28;20079;-63
2021/04/26 07:30:29;;;;;;;9.98;5.78;;;8.10;53.80;;;;;;5064920;28;20090;-62
2021/04/26 07:32:56;;;;;;;8.65;5.30;;;8.20;53.80;;;;;;5068454;28;20036;-63
2021/04/26 07:35:24;;;;;;;11.40;5.68;;;8.20;54.00;;;;;;5067475;28;20033;-63
2021/04/26 07:37:54;;;;;;;10.98;5.15;;;8.30;53.60;;;;;;5067242;28;20040;-62
2021/04/26 07:40:22;;;;;;;8.75;5.25;;;8.30;53.60;;;;;;5065340;28;20604;-63
2021/04/26 07:42:52;;;;;;;38.53;5.78;;;8.40;53.40;;;;;;5066599;28;20501;-62
2021/04/26 07:45:23;;;;;;;6.95;4.90;;;8.40;53.50;;;;;;5066914;28;20057;-63
2021/04/26 07:47:52;;;;;;;11.52;5.43;;;8.50;53.20;;;;;;5067665;28;20032;-63
2021/04/26 07:50:20;;;;;;;8.90;4.47;;;8.60;53.20;;;;;;5065270;28;20040;-64
2021/04/26 07:52:45;;;;;;;8.82;5.00;;;8.70;53.20;;;;;;5066179;28;20646;-63
2021/04/26 07:55:13;;;;;;;6.97;5.05;;;8.80;53.00;;;;;;5066748;28;20060;-63
2021/04/26 07:57:42;;;;;;;9.77;5.57;;;8.90;53.00;;;;;;5067670;28;20037;-63
2021/04/26 08:00:09;;;;;;;8.90;5.25;;;9.00;52.90;;;;;;5067127;28;20064;-64
2021/04/26 08:02:39;;;;;;;7.07;4.78;;;9.10;52.80;;;;;;5065960;28;20029;-63
2021/04/26 08:05:05;;;;;;;23.45;5.22;;;9.10;52.60;;;;;;5065163;28;20052;-64
2021/04/26 08:07:36;;;;;;;7.22;4.78;;;9.20;52.70;;;;;;5067510;28;20439;-64
2021/04/26 08:10:05;;;;;;;7.45;5.43;;;9.30;52.70;;;;;;5058330;28;20029;-63
2021/04/26 08:12:33;;;;;;;9.77;5.80;;;9.30;53.30;;;;;;5058102;28;20074;-63
2021/04/26 08:14:58;;;;;;;7.38;5.22;;;9.50;52.60;;;;;;5064459;28;20124;-63
2021/04/26 08:17:29;;;;;;;7.20;5.18;;;9.50;52.30;;;;;;5064185;28;20123;-63
2021/04/26 08:19:59;;;;;;;6.65;4.97;;;9.60;52.30;;;;;;5063873;28;20037;-63
2021/04/26 08:22:29;;;;;;;10.95;6.15;;;9.80;52.30;;;;;;5065807;28;20032;-61
2021/04/26 08:24:57;;;;;;;9.40;5.07;;;9.80;52.00;;;;;;5064702;28;20043;-63
2021/04/26 08:27:23;;;;;;;9.57;5.65;;;9.90;51.80;;;;;;5063421;28;20037;-63
2021/04/26 08:29:51;;;;;;;9.80;5.53;;;10.00;51.90;;;;;;5064755;28;20029;-63
2021/04/26 08:32:22;;;;;;;10.05;5.93;;;10.10;51.90;;;;;;5062765;28;20802;-63
2021/04/26 08:34:52;;;;;;;13.82;5.95;;;10.10;51.50;;;;;;5063055;28;20505;-63
2021/04/26 08:37:22;;;;;;;9.52;5.00;;;10.20;51.70;;;;;;5065252;28;20040;-63
2021/04/26 08:39:50;;;;;;;8.30;5.10;;;10.30;51.50;;;;;;5066246;28;20090;-63
2021/04/26 08:42:20;;;;;;;13.65;5.20;;;10.30;51.50;;;;;;5065313;28;20037;-62
2021/04/26 08:44:48;;;;;;;8.48;5.32;;;10.40;51.50;;;;;;5064454;28;20539;-63
2021/04/26 08:47:15;;;;;;;11.65;5.15;;;10.40;51.30;;;;;;5064617;28;20051;-63
2021/04/26 08:49:41;;;;;;;9.93;5.13;;;10.50;51.30;;;;;;5064765;28;20043;-63
2021/04/26 08:52:08;;;;;;;14.02;5.00;;;10.50;51.10;;;;;;5065754;28;20044;-63
2021/04/26 08:54:36;;;;;;;8.02;5.15;;;10.70;51.20;;;;;;5066441;28;20036;-64
2021/04/26 08:57:02;;;;;;;9.88;5.13;;;10.80;51.10;;;;;;5063603;28;20056;-64
2021/04/26 08:59:32;;;;;;;7.53;5.20;;;10.90;51.00;;;;;;5066899;28;20090;-64
2021/04/26 09:02:04;;;;;;;10.80;4.82;;;11.00;50.80;;;;;;5065520;28;20119;-63
2021/04/26 09:04:44;;;;;;;8.10;4.95;;;11.10;50.70;;;;;;5065473;28;20040;-64
2021/04/26 09:07:16;;;;;;;10.20;5.10;;;11.20;50.40;;;;;;5064553;28;20036;-64
2021/04/26 09:09:47;;;;;;;9.25;4.68;;;11.40;50.40;;;;;;5065583;28;20024;-63
2021/04/26 09:12:27;;;;;;;14.63;4.70;;;11.50;50.30;;;;;;5060041;28;20047;-64
2021/04/26 09:14:59;;;;;;;7.50;5.20;;;11.60;50.40;;;;;;5061114;28;20041;-63
2021/04/26 09:17:35;;;;;;;7.30;4.78;;;11.80;50.10;;;;;;5064008;28;20527;-63
2021/04/26 09:20:18;;;;;;;7.50;5.70;;;11.90;50.00;;;;;;5065712;28;20040;-64
2021/04/26 09:23:04;;;;;;;8.30;4.47;;;12.00;49.30;;;;;;5063602;28;20044;-63
2021/04/26 09:25:46;;;;;;;7.78;5.38;;;12.10;49.30;;;;;;5062623;28;20028;-64
2021/04/26 09:28:22;;;;;;;8.07;4.45;;;12.30;49.00;;;;;;5065212;28;20037;-64
2021/04/26 09:30:56;;;;;;;6.43;4.57;;;12.40;49.00;;;;;;5063306;28;20479;-64
2021/04/26 09:33:39;;;;;;;8.32;4.97;;;12.50;48.40;;;;;;5064348;28;20025;-63
2021/04/26 09:36:18;;;;;;;17.25;5.40;;;12.60;48.50;;;;;;5062822;28;20421;-64
2021/04/26 09:38:53;;;;;;;5.82;4.50;;;12.80;48.10;;;;;;5065206;28;20040;-62
2021/04/26 09:41:21;;;;;;;9.25;4.30;;;12.90;47.80;;;;;;5064639;28;20029;-63
2021/04/26 09:44:07;;;;;;;8.70;4.65;;;13.00;47.60;;;;;;5065681;28;20525;-63
2021/04/26 09:46:53;;;;;;;7.68;4.20;;;13.10;47.30;;;;;;5064585;28;20386;-64
2021/04/26 09:49:28;;;;;;;6.30;4.05;;;13.30;47.10;;;;;;5065832;28;20123;-63
2021/04/26 09:51:56;;;;;;;6.38;4.03;;;13.40;47.00;;;;;;5065427;28;20032;-64
2021/04/26 09:54:45;;;;;;;9.00;3.95;;;13.60;46.70;;;;;;5067621;28;20029;-64
2021/04/26 09:57:11;;;;;;;5.75;3.90;;;13.70;46.10;;;;;;5068495;28;20123;-63
2021/04/26 09:59:39;;;;;;;5.43;3.47;;;13.90;46.50;;;;;;5067444;28;21528;-64
2021/04/26 10:02:05;;;;;;;5.15;3.28;;;14.00;45.10;;;;;;5069800;28;20028;-65
2021/04/26 10:04:33;;;;;;;5.80;3.30;;;14.10;44.80;;;;;;5069351;28;20565;-64
2021/04/26 10:07:03;;;;;;;6.10;4.03;;;14.20;44.50;;;;;;5068773;28;20033;-64
2021/04/26 10:09:29;;;;;;;8.60;3.75;;;14.40;44.40;;;;;;5069980;28;20032;-63
2021/04/26 10:11:57;;;;;;;5.47;3.47;;;14.50;44.20;;;;;;5066411;28;20182;-64
2021/04/26 10:14:25;;;;;;;4.35;3.30;;;14.60;43.90;;;;;;5069049;28;20056;-65
2021/04/26 10:17:01;;;;;;;6.50;4.13;;;14.70;43.10;;;;;;5070613;28;20033;-64
2021/04/26 10:19:49;;;;;;;8.23;3.72;;;14.80;43.00;;;;;;5068437;28;20036;-64
2021/04/26 10:22:39;;;;;;;8.27;3.15;;;14.90;42.30;;;;;;5068394;28;20040;-64
2021/04/26 10:25:12;;;;;;;3.42;2.88;;;15.00;41.90;;;;;;5069428;28;20032;-64
2021/04/26 10:27:44;;;;;;;4.97;3.17;;;15.00;41.60;;;;;;5070193;28;20040;-64
2021/04/26 10:30:17;;;;;;;5.78;3.40;;;15.10;40.90;;;;;;5070188;28;20108;-63
2021/04/26 10:33:02;;;;;;;5.78;4.38;;;15.20;41.10;;;;;;5068692;28;20041;-64
2021/04/26 10:35:51;;;;;;;4.97;3.70;;;15.20;40.70;;;;;;5066748;28;20029;-64
2021/04/26 10:38:46;;;;;;;7.95;4.50;;;15.30;41.20;;;;;;5069715;28;20064;-64
2021/04/26 10:41:53;;;;;;;10.43;4.00;;;15.30;41.00;;;;;;5069546;28;20040;-64
2021/04/26 10:44:46;;;;;;;6.35;3.83;;;15.30;41.00;;;;;;5067051;28;20036;-64
2021/04/26 10:47:31;;;;;;;7.18;3.83;;;15.30;41.40;;;;;;5066021;28;20032;-63
2021/04/26 10:50:02;;;;;;;4.97;3.30;;;15.30;41.60;;;;;;5067693;28;20537;-64
2021/04/26 10:52:33;;;;;;;4.72;3.95;;;15.30;41.50;;;;;;5068028;28;20040;-64
2021/04/26 10:55:04;;;;;;;5.13;4.10;;;15.40;41.80;;;;;;5067796;28;20033;-64
2021/04/26 10:57:42;;;;;;;5.60;4.78;;;15.40;41.60;;;;;;5066762;28;20129;-64
2021/04/26 11:00:31;;;;;;;6.53;3.63;;;15.40;41.20;;;;;;5060909;28;20986;-63
2021/04/26 11:03:21;;;;;;;4.47;3.33;;;15.40;41.10;;;;;;5067305;28;20032;-63
2021/04/26 11:05:54;;;;;;;4.97;4.00;;;15.50;41.10;;;;;;5067778;28;20032;-63
2021/04/26 11:11:14;;;;;;;6.72;4.53;;;15.60;40.60;;;;;;5064760;28;20417;-64
2021/04/26 11:13:47;;;;;;;8.50;5.20;;;15.60;41.30;;;;;;5068072;28;20513;-64
2021/04/26 11:16:17;;;;;;;8.82;3.88;;;15.60;40.70;;;;;;5067640;28;20143;-64
2021/04/26 11:19:00;;;;;;;7.32;3.72;;;15.60;40.80;;;;;;5067699;28;20071;-64
2021/04/26 11:21:47;;;;;;;5.60;3.20;;;15.60;40.50;;;;;;5066970;28;20021;-64
2021/04/26 11:24:38;;;;;;;4.90;3.00;;;15.60;39.70;;;;;;5065998;28;20037;-65
2021/04/26 11:27:15;;;;;;;5.60;3.38;;;15.70;38.80;;;;;;5065087;28;20151;-64
2021/04/26 11:29:50;;;;;;;5.72;4.47;;;15.70;39.60;;;;;;5068139;28;20029;-64
2021/04/26 11:32:16;;;;;;;;;;;15.70;40.40;;;;;;5067405;28;20529;-64
2021/04/26 11:34:53;;;;;;;4.03;3.13;;;15.80;41.00;;;;;;5067046;28;20460;-62
2021/04/26 11:37:25;;;;;;;4.85;3.50;;;15.90;39.30;;;;;;5064955;28;20036;-64
2021/04/26 11:39:55;;;;;;;5.07;3.80;;;15.90;39.20;;;;;;5067292;28;20111;-64
2021/04/26 11:42:23;;;;;;;5.18;3.90;;;16.00;39.70;;;;;;5066628;28;20039;-64
2021/04/26 11:44:52;;;;;;;5.80;3.67;;;16.00;39.60;;;;;;5067306;28;20044;-64
2021/04/26 11:47:23;;;;;;;4.72;4.20;;;16.00;39.80;;;;;;5067534;28;20041;-64
2021/04/26 11:49:59;;;;;;;4.65;4.18;;;16.10;39.10;;;;;;5063399;28;20061;-64
2021/04/26 11:52:32;;;;;;;5.78;3.70;;;16.10;38.70;;;;;;5066621;28;20036;-64
2021/04/26 11:55:09;;;;;;;7.13;3.97;;;16.10;39.30;;;;;;5066709;28;20037;-64
2021/04/26 11:57:48;;;;;;;4.82;3.28;;;16.10;39.00;;;;;;5067003;28;20413;-64
2021/04/26 12:00:19;;;;;;;4.15;2.67;;;16.20;38.70;;;;;;5066998;28;20032;-64
2021/04/26 12:02:51;;;;;;;3.15;2.85;;;16.30;38.40;;;;;;5058217;28;20032;-64
2021/04/26 12:05:27;;;;;;;7.00;3.78;;;16.30;38.00;;;;;;5067649;28;20071;-65
2021/04/26 12:07:56;;;;;;;5.15;4.00;;;16.40;38.10;;;;;;5067127;28;20044;-64
2021/04/26 12:10:25;;;;;;;6.63;3.78;;;16.50;38.30;;;;;;5064188;28;20635;-63
2021/04/26 12:13:04;;;;;;;7.80;4.68;;;16.50;38.30;;;;;;5066107;28;20062;-62
2021/04/26 12:15:35;;;;;;;4.45;4.05;;;16.50;36.90;;;;;;5066059;28;20032;-63
2021/04/26 12:18:04;;;;;;;4.32;3.60;;;16.50;37.70;;;;;;5065695;28;20132;-64
2021/04/26 12:20:33;;;;;;;6.25;3.67;;;16.50;38.00;;;;;;5066835;28;20304;-64
2021/04/26 12:23:19;;;;;;;6.20;4.28;;;16.50;38.30;;;;;;5063171;28;20085;-63
2021/04/26 12:25:48;;;;;;;6.13;4.40;;;16.50;37.90;;;;;;5067401;28;20025;-64
2021/04/26 12:28:16;;;;;;;8.00;5.15;;;16.40;37.60;;;;;;5065242;28;20052;-64
2021/04/26 12:30:50;;;;;;;6.25;3.20;;;16.50;37.10;;;;;;5080683;28;20045;-64
2021/04/26 12:33:26;;;;;;;5.10;3.63;;;16.40;37.30;;;;;;5066960;28;20029;-65
2021/04/26 12:35:58;;;;;;;5.88;3.88;;;16.40;37.30;;;;;;5067550;28;20128;-62
2021/04/26 12:38:26;;;;;;;8.15;4.03;;;16.40;37.50;;;;;;5067308;28;20044;-63
2021/04/26 12:41:01;;;;;;;6.95;4.00;;;16.50;37.70;;;;;;5066669;28;20032;-63
2021/04/26 12:43:38;;;;;;;5.88;4.15;;;16.50;36.80;;;;;;5081868;28;20119;-66
2021/04/26 12:46:15;;;;;;;5.43;3.78;;;16.50;37.00;;;;;;5064036;28;20063;-62
2021/04/26 12:48:44;;;;;;;6.60;3.47;;;16.50;36.90;;;;;;5066344;28;20032;-63
2021/04/26 12:51:23;;;;;;;5.35;4.32;;;16.50;36.80;;;;;;5065531;28;20036;-64
2021/04/26 12:53:53;;;;;;;3.60;2.80;;;16.50;36.00;;;;;;5061013;28;20037;-61
2021/04/26 12:56:23;;;;;;;3.58;3.25;;;16.40;36.70;;;;;;5063498;28;20040;-63
2021/04/26 12:58:51;;;;;;;6.97;3.25;;;16.40;36.20;;;;;;5065285;28;20421;-63
2021/04/26 13:01:27;;;;;;;3.35;2.75;;;16.40;35.70;;;;;;5063590;28;20028;-63
2021/04/26 13:03:59;;;;;;;5.97;2.83;;;16.50;35.40;;;;;;5065327;28;20024;-63
2021/04/26 13:06:32;;;;;;;5.47;2.80;;;16.50;35.50;;;;;;5065363;28;20025;-63
2021/04/26 13:09:03;;;;;;;3.65;3.25;;;16.50;35.30;;;;;;5064958;28;20032;-63
2021/04/26 13:11:36;;;;;;;4.65;3.08;;;16.60;35.30;;;;;;5062164;28;20426;-63
2021/04/26 13:14:10;;;;;;;4.25;3.33;;;16.70;35.20;;;;;;5064516;28;20437;-63
2021/04/26 13:16:41;;;;;;;5.68;2.85;;;16.70;34.50;;;;;;5065069;28;20032;-62
2021/04/26 13:19:15;;;;;;;5.35;3.70;;;16.70;35.10;;;;;;5065200;28;20065;-63